sensor_id;sensor_type;location;lat;lon;timestamp;temperature;humidity
45761;DHT22;31471;51.040;14.414;2022-07-01T00:01:24;18.50;99.90
45761;DHT22;31471;51.040;14.414;2022-07-01T00:03:49;18.40;99.90
45761;DHT22;31471;51.040;14.414;2022-07-01T00:06:15;18.40;99.90
45761;DHT22;31471;51.040;14.414;2022-07-01T00:08:41;18.40;99.90
45761;DHT22;31471;51.040;14.414;2022-07-01T00:11:06;18.40;99.90
45761;DHT22;31471;51.040;14.414;2022-07-01T00:13:32;18.40;99.90
45761;DHT22;31471;51.040;14.414;2022-07-01T00:15:57;18.30;99.90
45761;DHT22;31471;51.040;14.414;2022-07-01T00:18:23;18.30;99.90
45761;DHT22;31471;51.040;14.414;2022-07-01T00:20:49;18.30;99.90
45761;DHT22;31471;51.040;14.414;2022-07-01T00:23:16;18.30;99.90
45761;DHT22;31471;51.040;14.414;2022-07-01T00:25:42;18.30;99.90
45761;DHT22;31471;51.040;14.414;2022-07-01T00:28:08;18.30;99.90
45761;DHT22;31471;51.040;14.414;2022-07-01T00:30:33;18.40;99.90
45761;DHT22;31471;51.040;14.414;2022-07-01T00:32:59;18.30;99.90
45761;DHT22;31471;51.040;14.414;2022-07-01T00:35:24;18.30;99.90
45761;DHT22;31471;51.040;14.414;2022-07-01T00:37:50;18.30;99.90
45761;DHT22;31471;51.040;14.414;2022-07-01T00:40:15;18.20;99.90
45761;DHT22;31471;51.040;14.414;2022-07-01T00:42:41;18.10;99.90
45761;DHT22;31471;51.040;14.414;2022-07-01T00:45:09;18.10;99.90
45761;DHT22;31471;51.040;14.414;2022-07-01T00:47:36;18.00;99.90
45761;DHT22;31471;51.040;14.414;2022-07-01T00:50:03;18.00;99.90
45761;DHT22;31471;51.040;14.414;2022-07-01T00:52:31;18.00;99.90
45761;DHT22;31471;51.040;14.414;2022-07-01T00:54:57;18.10;99.90
45761;DHT22;31471;51.040;14.414;2022-07-01T00:57:23;18.00;99.90
45761;DHT22;31471;51.040;14.414;2022-07-01T00:59:54;18.00;99.90
45761;DHT22;31471;51.040;14.414;2022-07-01T01:02:20;18.00;99.90
45761;DHT22;31471;51.040;14.414;2022-07-01T01:04:46;17.90;99.90
45761;DHT22;31471;51.040;14.414;2022-07-01T01:07:12;18.00;99.90
45761;DHT22;31471;51.040;14.414;2022-07-01T01:09:37;18.00;99.90
45761;DHT22;31471;51.040;14.414;2022-07-01T01:12:03;18.00;99.90
45761;DHT22;31471;51.040;14.414;2022-07-01T01:14:28;18.00;99.90
45761;DHT22;31471;51.040;14.414;2022-07-01T01:16:54;17.90;99.90
45761;DHT22;31471;51.040;14.414;2022-07-01T01:19:19;17.90;99.90
45761;DHT22;31471;51.040;14.414;2022-07-01T01:21:45;17.90;99.90
45761;DHT22;31471;51.040;14.414;2022-07-01T01:24:10;17.90;99.90
45761;DHT22;31471;51.040;14.414;2022-07-01T01:26:36;17.90;99.90
45761;DHT22;31471;51.040;14.414;2022-07-01T01:29:04;17.90;99.90
45761;DHT22;31471;51.040;14.414;2022-07-01T01:31:30;17.90;99.90
45761;DHT22;31471;51.040;14.414;2022-07-01T01:33:56;17.90;99.90
45761;DHT22;31471;51.040;14.414;2022-07-01T01:36:22;17.80;99.90
45761;DHT22;31471;51.040;14.414;2022-07-01T01:38:47;17.80;99.90
45761;DHT22;31471;51.040;14.414;2022-07-01T01:41:13;17.90;99.90
45761;DHT22;31471;51.040;14.414;2022-07-01T01:43:38;17.80;99.90
45761;DHT22;31471;51.040;14.414;2022-07-01T01:46:04;17.80;99.90
45761;DHT22;31471;51.040;14.414;2022-07-01T01:48:30;17.80;99.90
45761;DHT22;31471;51.040;14.414;2022-07-01T01:50:55;17.70;99.90
45761;DHT22;31471;51.040;14.414;2022-07-01T01:53:21;17.60;99.90
45761;DHT22;31471;51.040;14.414;2022-07-01T01:55:47;17.60;99.90
45761;DHT22;31471;51.040;14.414;2022-07-01T01:58:12;17.60;99.90
45761;DHT22;31471;51.040;14.414;2022-07-01T02:00:38;17.70;99.90
45761;DHT22;31471;51.040;14.414;2022-07-01T02:03:03;17.60;99.90
45761;DHT22;31471;51.040;14.414;2022-07-01T02:05:29;17.50;99.90
45761;DHT22;31471;51.040;14.414;2022-07-01T02:07:55;17.50;99.90
45761;DHT22;31471;51.040;14.414;2022-07-01T02:10:21;17.40;99.90
45761;DHT22;31471;51.040;14.414;2022-07-01T02:12:46;17.50;99.90
45761;DHT22;31471;51.040;14.414;2022-07-01T02:15:12;17.50;99.90
45761;DHT22;31471;51.040;14.414;2022-07-01T02:17:38;17.50;99.90
45761;DHT22;31471;51.040;14.414;2022-07-01T02:20:03;17.40;99.90
45761;DHT22;31471;51.040;14.414;2022-07-01T02:22:29;17.40;99.90
45761;DHT22;31471;51.040;14.414;2022-07-01T02:24:55;17.30;99.90
45761;DHT22;31471;51.040;14.414;2022-07-01T02:27:20;17.20;99.90
45761;DHT22;31471;51.040;14.414;2022-07-01T02:29:46;17.30;99.90
45761;DHT22;31471;51.040;14.414;2022-07-01T02:32:11;17.30;99.90
45761;DHT22;31471;51.040;14.414;2022-07-01T02:34:37;17.30;99.90
45761;DHT22;31471;51.040;14.414;2022-07-01T02:37:02;17.30;99.90
45761;DHT22;31471;51.040;14.414;2022-07-01T02:39:28;17.30;99.90
45761;DHT22;31471;51.040;14.414;2022-07-01T02:41:53;17.40;99.90
45761;DHT22;31471;51.040;14.414;2022-07-01T02:44:37;17.30;99.90
45761;DHT22;31471;51.040;14.414;2022-07-01T02:47:03;17.30;99.90
45761;DHT22;31471;51.040;14.414;2022-07-01T02:49:28;17.30;99.90
45761;DHT22;31471;51.040;14.414;2022-07-01T02:51:54;17.30;99.90
45761;DHT22;31471;51.040;14.414;2022-07-01T02:54:19;17.30;99.90
45761;DHT22;31471;51.040;14.414;2022-07-01T02:56:45;17.30;99.90
45761;DHT22;31471;51.040;14.414;2022-07-01T02:59:10;17.30;99.90
45761;DHT22;31471;51.040;14.414;2022-07-01T03:01:35;17.20;99.90
45761;DHT22;31471;51.040;14.414;2022-07-01T03:04:01;17.30;99.90
45761;DHT22;31471;51.040;14.414;2022-07-01T03:06:27;17.20;99.90
45761;DHT22;31471;51.040;14.414;2022-07-01T03:08:52;17.10;99.90
45761;DHT22;31471;51.040;14.414;2022-07-01T03:11:18;17.00;99.90
45761;DHT22;31471;51.040;14.414;2022-07-01T03:13:44;17.00;99.90
45761;DHT22;31471;51.040;14.414;2022-07-01T03:16:10;17.00;99.90
45761;DHT22;31471;51.040;14.414;2022-07-01T03:18:35;16.90;99.90
45761;DHT22;31471;51.040;14.414;2022-07-01T03:21:01;17.00;99.90
45761;DHT22;31471;51.040;14.414;2022-07-01T03:23:26;17.00;99.90
45761;DHT22;31471;51.040;14.414;2022-07-01T03:25:52;17.00;99.90
45761;DHT22;31471;51.040;14.414;2022-07-01T03:28:17;16.90;99.90
45761;DHT22;31471;51.040;14.414;2022-07-01T03:30:43;16.90;99.90
45761;DHT22;31471;51.040;14.414;2022-07-01T03:33:08;16.90;99.90
45761;DHT22;31471;51.040;14.414;2022-07-01T03:35:34;17.00;99.90
45761;DHT22;31471;51.040;14.414;2022-07-01T03:38:04;17.00;99.90
45761;DHT22;31471;51.040;14.414;2022-07-01T03:40:31;17.00;99.90
45761;DHT22;31471;51.040;14.414;2022-07-01T03:42:56;17.10;99.90
45761;DHT22;31471;51.040;14.414;2022-07-01T03:45:21;17.10;99.90
45761;DHT22;31471;51.040;14.414;2022-07-01T03:47:47;17.10;99.90
45761;DHT22;31471;51.040;14.414;2022-07-01T03:50:14;17.10;99.90
45761;DHT22;31471;51.040;14.414;2022-07-01T03:52:40;17.10;99.90
45761;DHT22;31471;51.040;14.414;2022-07-01T03:55:08;17.10;99.90
45761;DHT22;31471;51.040;14.414;2022-07-01T03:57:34;17.20;99.90
45761;DHT22;31471;51.040;14.414;2022-07-01T03:59:59;17.20;99.90
45761;DHT22;31471;51.040;14.414;2022-07-01T04:02:25;17.20;99.90
45761;DHT22;31471;51.040;14.414;2022-07-01T04:04:50;17.30;99.90
45761;DHT22;31471;51.040;14.414;2022-07-01T04:07:16;17.30;99.90
45761;DHT22;31471;51.040;14.414;2022-07-01T04:09:41;17.40;99.90
45761;DHT22;31471;51.040;14.414;2022-07-01T04:12:08;17.40;99.90
45761;DHT22;31471;51.040;14.414;2022-07-01T04:14:34;17.50;99.90
45761;DHT22;31471;51.040;14.414;2022-07-01T04:17:00;17.50;99.90
45761;DHT22;31471;51.040;14.414;2022-07-01T04:19:25;17.60;99.90
45761;DHT22;31471;51.040;14.414;2022-07-01T04:21:51;17.60;99.90
45761;DHT22;31471;51.040;14.414;2022-07-01T04:24:35;17.70;99.90
45761;DHT22;31471;51.040;14.414;2022-07-01T04:27:01;17.70;99.90
45761;DHT22;31471;51.040;14.414;2022-07-01T04:29:27;17.80;99.90
45761;DHT22;31471;51.040;14.414;2022-07-01T04:31:54;17.90;99.90
45761;DHT22;31471;51.040;14.414;2022-07-01T04:34:20;17.90;99.90
45761;DHT22;31471;51.040;14.414;2022-07-01T04:36:45;18.00;99.90
45761;DHT22;31471;51.040;14.414;2022-07-01T04:39:11;18.10;99.90
45761;DHT22;31471;51.040;14.414;2022-07-01T04:41:36;18.10;99.90
45761;DHT22;31471;51.040;14.414;2022-07-01T04:44:21;18.20;99.90
45761;DHT22;31471;51.040;14.414;2022-07-01T04:46:46;18.30;99.90
45761;DHT22;31471;51.040;14.414;2022-07-01T04:49:12;18.40;99.90
45761;DHT22;31471;51.040;14.414;2022-07-01T04:51:37;18.50;99.90
45761;DHT22;31471;51.040;14.414;2022-07-01T04:54:03;18.60;99.90
45761;DHT22;31471;51.040;14.414;2022-07-01T04:56:29;18.70;99.90
45761;DHT22;31471;51.040;14.414;2022-07-01T04:58:55;18.70;99.90
45761;DHT22;31471;51.040;14.414;2022-07-01T05:01:21;18.80;99.90
45761;DHT22;31471;51.040;14.414;2022-07-01T05:03:46;18.90;99.90
45761;DHT22;31471;51.040;14.414;2022-07-01T05:06:12;19.00;99.90
45761;DHT22;31471;51.040;14.414;2022-07-01T05:08:37;19.10;99.90
45761;DHT22;31471;51.040;14.414;2022-07-01T05:11:03;19.20;99.90
45761;DHT22;31471;51.040;14.414;2022-07-01T05:13:28;19.30;99.90
45761;DHT22;31471;51.040;14.414;2022-07-01T05:15:54;19.30;99.90
45761;DHT22;31471;51.040;14.414;2022-07-01T05:18:19;19.30;99.90
45761;DHT22;31471;51.040;14.414;2022-07-01T05:21:04;19.40;99.90
45761;DHT22;31471;51.040;14.414;2022-07-01T05:23:48;19.40;99.90
45761;DHT22;31471;51.040;14.414;2022-07-01T05:26:13;19.60;99.90
45761;DHT22;31471;51.040;14.414;2022-07-01T05:28:45;19.60;99.90
45761;DHT22;31471;51.040;14.414;2022-07-01T05:31:11;19.80;99.90
45761;DHT22;31471;51.040;14.414;2022-07-01T05:33:36;19.90;99.90
45761;DHT22;31471;51.040;14.414;2022-07-01T05:36:02;20.00;99.90
45761;DHT22;31471;51.040;14.414;2022-07-01T05:38:27;20.20;99.90
45761;DHT22;31471;51.040;14.414;2022-07-01T05:40:53;20.20;99.90
45761;DHT22;31471;51.040;14.414;2022-07-01T05:43:19;20.30;99.90
45761;DHT22;31471;51.040;14.414;2022-07-01T05:45:45;20.40;99.90
45761;DHT22;31471;51.040;14.414;2022-07-01T05:48:10;20.50;99.90
45761;DHT22;31471;51.040;14.414;2022-07-01T05:50:36;20.60;99.90
45761;DHT22;31471;51.040;14.414;2022-07-01T05:53:01;20.70;99.90
45761;DHT22;31471;51.040;14.414;2022-07-01T05:55:27;20.70;99.90
45761;DHT22;31471;51.040;14.414;2022-07-01T05:57:52;20.90;99.90
45761;DHT22;31471;51.040;14.414;2022-07-01T06:00:18;21.20;99.90
45761;DHT22;31471;51.040;14.414;2022-07-01T06:02:43;21.50;99.90
45761;DHT22;31471;51.040;14.414;2022-07-01T06:05:09;21.80;99.90
45761;DHT22;31471;51.040;14.414;2022-07-01T06:07:34;22.00;99.90
45761;DHT22;31471;51.040;14.414;2022-07-01T06:10:00;22.10;99.90
45761;DHT22;31471;51.040;14.414;2022-07-01T06:12:25;22.30;99.90
45761;DHT22;31471;51.040;14.414;2022-07-01T06:14:51;22.40;99.90
45761;DHT22;31471;51.040;14.414;2022-07-01T06:17:17;22.50;99.90
45761;DHT22;31471;51.040;14.414;2022-07-01T06:19:42;22.50;99.90
45761;DHT22;31471;51.040;14.414;2022-07-01T06:22:08;22.60;99.90
45761;DHT22;31471;51.040;14.414;2022-07-01T06:24:34;22.60;99.90
45761;DHT22;31471;51.040;14.414;2022-07-01T06:26:59;22.70;99.90
45761;DHT22;31471;51.040;14.414;2022-07-01T06:29:29;22.90;99.90
45761;DHT22;31471;51.040;14.414;2022-07-01T06:31:56;22.80;99.90
45761;DHT22;31471;51.040;14.414;2022-07-01T06:34:21;22.80;99.90
45761;DHT22;31471;51.040;14.414;2022-07-01T06:36:47;22.80;99.90
45761;DHT22;31471;51.040;14.414;2022-07-01T06:39:12;22.90;99.90
45761;DHT22;31471;51.040;14.414;2022-07-01T06:41:37;22.90;99.90
45761;DHT22;31471;51.040;14.414;2022-07-01T06:44:03;23.00;99.90
45761;DHT22;31471;51.040;14.414;2022-07-01T06:46:30;23.00;99.90
45761;DHT22;31471;51.040;14.414;2022-07-01T06:48:56;23.10;99.90
45761;DHT22;31471;51.040;14.414;2022-07-01T06:51:23;23.20;99.90
45761;DHT22;31471;51.040;14.414;2022-07-01T06:53:49;23.10;99.90
45761;DHT22;31471;51.040;14.414;2022-07-01T06:56:15;23.10;99.90
45761;DHT22;31471;51.040;14.414;2022-07-01T06:58:40;23.10;99.90
45761;DHT22;31471;51.040;14.414;2022-07-01T07:01:06;23.30;99.90
45761;DHT22;31471;51.040;14.414;2022-07-01T07:03:32;23.50;99.90
45761;DHT22;31471;51.040;14.414;2022-07-01T07:05:58;23.50;99.90
45761;DHT22;31471;51.040;14.414;2022-07-01T07:08:25;23.70;99.90
45761;DHT22;31471;51.040;14.414;2022-07-01T07:10:51;23.90;99.90
45761;DHT22;31471;51.040;14.414;2022-07-01T07:13:16;24.00;99.90
45761;DHT22;31471;51.040;14.414;2022-07-01T07:15:42;24.20;99.90
45761;DHT22;31471;51.040;14.414;2022-07-01T07:18:07;24.30;99.90
45761;DHT22;31471;51.040;14.414;2022-07-01T07:20:33;24.30;99.90
45761;DHT22;31471;51.040;14.414;2022-07-01T07:22:59;24.40;99.90
45761;DHT22;31471;51.040;14.414;2022-07-01T07:25:25;24.40;99.90
45761;DHT22;31471;51.040;14.414;2022-07-01T07:27:50;24.30;99.90
45761;DHT22;31471;51.040;14.414;2022-07-01T07:30:16;24.50;99.90
45761;DHT22;31471;51.040;14.414;2022-07-01T07:32:42;24.70;99.90
45761;DHT22;31471;51.040;14.414;2022-07-01T07:35:08;24.90;99.90
45761;DHT22;31471;51.040;14.414;2022-07-01T07:37:33;25.10;99.90
45761;DHT22;31471;51.040;14.414;2022-07-01T07:39:59;25.00;99.90
45761;DHT22;31471;51.040;14.414;2022-07-01T07:42:26;25.20;99.90
45761;DHT22;31471;51.040;14.414;2022-07-01T07:44:52;25.10;99.90
45761;DHT22;31471;51.040;14.414;2022-07-01T07:47:17;25.30;99.90
45761;DHT22;31471;51.040;14.414;2022-07-01T07:49:43;25.70;99.90
45761;DHT22;31471;51.040;14.414;2022-07-01T07:52:08;25.90;99.90
45761;DHT22;31471;51.040;14.414;2022-07-01T07:54:34;26.00;99.90
45761;DHT22;31471;51.040;14.414;2022-07-01T07:57:00;25.80;99.90
45761;DHT22;31471;51.040;14.414;2022-07-01T07:59:25;26.10;99.90
45761;DHT22;31471;51.040;14.414;2022-07-01T08:01:51;26.40;99.90
45761;DHT22;31471;51.040;14.414;2022-07-01T08:04:16;26.30;99.90
45761;DHT22;31471;51.040;14.414;2022-07-01T08:06:42;26.50;99.90
45761;DHT22;31471;51.040;14.414;2022-07-01T08:09:07;26.20;99.90
45761;DHT22;31471;51.040;14.414;2022-07-01T08:11:33;26.30;99.90
45761;DHT22;31471;51.040;14.414;2022-07-01T08:13:58;26.40;99.90
45761;DHT22;31471;51.040;14.414;2022-07-01T08:16:24;26.40;99.90
45761;DHT22;31471;51.040;14.414;2022-07-01T08:18:50;26.50;99.90
45761;DHT22;31471;51.040;14.414;2022-07-01T08:21:15;26.70;99.90
45761;DHT22;31471;51.040;14.414;2022-07-01T08:23:41;26.40;99.90
45761;DHT22;31471;51.040;14.414;2022-07-01T08:26:06;26.60;99.90
45761;DHT22;31471;51.040;14.414;2022-07-01T08:28:31;26.10;99.90
45761;DHT22;31471;51.040;14.414;2022-07-01T08:30:58;26.20;99.90
45761;DHT22;31471;51.040;14.414;2022-07-01T08:33:24;26.10;99.90
45761;DHT22;31471;51.040;14.414;2022-07-01T08:35:49;25.80;99.90
45761;DHT22;31471;51.040;14.414;2022-07-01T08:38:14;25.60;99.90
45761;DHT22;31471;51.040;14.414;2022-07-01T08:40:40;25.70;99.90
45761;DHT22;31471;51.040;14.414;2022-07-01T08:43:06;25.20;99.90
45761;DHT22;31471;51.040;14.414;2022-07-01T08:45:33;25.40;99.90
45761;DHT22;31471;51.040;14.414;2022-07-01T08:47:59;25.20;99.90
45761;DHT22;31471;51.040;14.414;2022-07-01T08:50:35;25.00;99.90
45761;DHT22;31471;51.040;14.414;2022-07-01T08:53:00;25.00;99.90
45761;DHT22;31471;51.040;14.414;2022-07-01T08:55:26;24.90;99.90
45761;DHT22;31471;51.040;14.414;2022-07-01T08:57:51;24.80;99.90
45761;DHT22;31471;51.040;14.414;2022-07-01T09:00:17;24.70;99.90
45761;DHT22;31471;51.040;14.414;2022-07-01T09:03:16;24.40;99.90
45761;DHT22;31471;51.040;14.414;2022-07-01T09:05:34;24.60;99.90
45761;DHT22;31471;51.040;14.414;2022-07-01T09:08:02;24.80;99.90
45761;DHT22;31471;51.040;14.414;2022-07-01T09:10:29;24.50;99.90
45761;DHT22;31471;51.040;14.414;2022-07-01T09:12:57;24.30;99.90
45761;DHT22;31471;51.040;14.414;2022-07-01T09:15:23;24.20;99.90
45761;DHT22;31471;51.040;14.414;2022-07-01T09:17:52;23.90;99.90
45761;DHT22;31471;51.040;14.414;2022-07-01T09:22:56;23.70;99.90
45761;DHT22;31471;51.040;14.414;2022-07-01T09:25:25;23.80;99.90
45761;DHT22;31471;51.040;14.414;2022-07-01T09:28:02;24.00;99.90
45761;DHT22;31471;51.040;14.414;2022-07-01T09:30:27;23.50;99.90
45761;DHT22;31471;51.040;14.414;2022-07-01T09:33:09;23.80;99.90
45761;DHT22;31471;51.040;14.414;2022-07-01T09:35:34;23.90;99.90
45761;DHT22;31471;51.040;14.414;2022-07-01T09:38:01;24.30;99.90
45761;DHT22;31471;51.040;14.414;2022-07-01T09:43:31;24.70;99.90
45761;DHT22;31471;51.040;14.414;2022-07-01T09:45:58;24.40;99.90
45761;DHT22;31471;51.040;14.414;2022-07-01T09:48:24;24.30;99.90
45761;DHT22;31471;51.040;14.414;2022-07-01T09:50:50;24.20;99.90
45761;DHT22;31471;51.040;14.414;2022-07-01T09:53:16;24.20;99.90
45761;DHT22;31471;51.040;14.414;2022-07-01T09:55:42;24.10;99.90
45761;DHT22;31471;51.040;14.414;2022-07-01T09:58:07;23.80;99.90
45761;DHT22;31471;51.040;14.414;2022-07-01T10:00:33;24.00;99.90
45761;DHT22;31471;51.040;14.414;2022-07-01T10:03:00;23.80;99.90
45761;DHT22;31471;51.040;14.414;2022-07-01T10:05:26;23.70;99.90
45761;DHT22;31471;51.040;14.414;2022-07-01T10:07:55;23.60;99.90
45761;DHT22;31471;51.040;14.414;2022-07-01T10:10:41;23.60;99.90
45761;DHT22;31471;51.040;14.414;2022-07-01T10:13:08;23.70;99.90
45761;DHT22;31471;51.040;14.414;2022-07-01T10:15:34;23.20;99.90
45761;DHT22;31471;51.040;14.414;2022-07-01T10:18:00;23.40;99.90
45761;DHT22;31471;51.040;14.414;2022-07-01T10:20:27;23.50;99.90
45761;DHT22;31471;51.040;14.414;2022-07-01T10:23:03;23.10;99.90
45761;DHT22;31471;51.040;14.414;2022-07-01T10:28:17;22.50;99.90
45761;DHT22;31471;51.040;14.414;2022-07-01T10:30:49;22.40;99.90
45761;DHT22;31471;51.040;14.414;2022-07-01T10:33:32;22.50;99.90
45761;DHT22;31471;51.040;14.414;2022-07-01T10:36:15;22.00;99.90
45761;DHT22;31471;51.040;14.414;2022-07-01T10:41:26;22.00;99.90
45761;DHT22;31471;51.040;14.414;2022-07-01T10:43:53;22.10;99.90
45761;DHT22;31471;51.040;14.414;2022-07-01T10:49:12;22.30;99.90
45761;DHT22;31471;51.040;14.414;2022-07-01T10:51:57;22.00;99.90
45761;DHT22;31471;51.040;14.414;2022-07-01T10:59:49;21.80;99.90
45761;DHT22;31471;51.040;14.414;2022-07-01T11:02:16;22.00;99.90
45761;DHT22;31471;51.040;14.414;2022-07-01T11:04:42;22.00;99.90
45761;DHT22;31471;51.040;14.414;2022-07-01T11:07:08;22.30;99.90
45761;DHT22;31471;51.040;14.414;2022-07-01T11:09:33;22.20;99.90
45761;DHT22;31471;51.040;14.414;2022-07-01T11:11:59;22.10;99.90
45761;DHT22;31471;51.040;14.414;2022-07-01T11:14:25;22.20;99.90
45761;DHT22;31471;51.040;14.414;2022-07-01T11:16:51;22.20;99.90
45761;DHT22;31471;51.040;14.414;2022-07-01T11:19:19;22.20;99.90
45761;DHT22;31471;51.040;14.414;2022-07-01T11:21:49;22.80;99.90
45761;DHT22;31471;51.040;14.414;2022-07-01T11:24:16;22.80;99.90
45761;DHT22;31471;51.040;14.414;2022-07-01T11:26:41;23.00;99.90
45761;DHT22;31471;51.040;14.414;2022-07-01T11:29:09;23.50;99.90
45761;DHT22;31471;51.040;14.414;2022-07-01T11:31:35;23.80;99.90
45761;DHT22;31471;51.040;14.414;2022-07-01T11:34:00;23.70;99.90
45761;DHT22;31471;51.040;14.414;2022-07-01T11:36:26;24.00;99.90
45761;DHT22;31471;51.040;14.414;2022-07-01T11:39:10;23.80;99.90
45761;DHT22;31471;51.040;14.414;2022-07-01T11:41:55;23.50;99.90
45761;DHT22;31471;51.040;14.414;2022-07-01T11:44:29;23.50;99.90
45761;DHT22;31471;51.040;14.414;2022-07-01T11:46:55;23.50;99.90
45761;DHT22;31471;51.040;14.414;2022-07-01T11:49:20;23.60;99.90
45761;DHT22;31471;51.040;14.414;2022-07-01T11:54:20;23.50;99.90
45761;DHT22;31471;51.040;14.414;2022-07-01T11:56:47;23.20;99.90
45761;DHT22;31471;51.040;14.414;2022-07-01T11:59:12;22.90;99.90
45761;DHT22;31471;51.040;14.414;2022-07-01T12:01:38;22.90;99.90
45761;DHT22;31471;51.040;14.414;2022-07-01T12:04:05;22.60;99.90
45761;DHT22;31471;51.040;14.414;2022-07-01T12:06:31;22.30;99.90
45761;DHT22;31471;51.040;14.414;2022-07-01T12:08:57;22.20;99.90
45761;DHT22;31471;51.040;14.414;2022-07-01T12:11:24;22.20;99.90
45761;DHT22;31471;51.040;14.414;2022-07-01T12:13:50;22.00;99.90
45761;DHT22;31471;51.040;14.414;2022-07-01T12:16:16;22.40;99.90
45761;DHT22;31471;51.040;14.414;2022-07-01T12:18:51;22.20;99.90
45761;DHT22;31471;51.040;14.414;2022-07-01T12:21:17;21.80;99.90
45761;DHT22;31471;51.040;14.414;2022-07-01T12:24:01;21.80;99.90
45761;DHT22;31471;51.040;14.414;2022-07-01T12:26:26;21.70;99.90
45761;DHT22;31471;51.040;14.414;2022-07-01T12:28:53;21.50;99.90
45761;DHT22;31471;51.040;14.414;2022-07-01T12:31:19;21.30;99.90
45761;DHT22;31471;51.040;14.414;2022-07-01T12:33:48;21.30;99.90
45761;DHT22;31471;51.040;14.414;2022-07-01T12:36:14;21.10;99.90
45761;DHT22;31471;51.040;14.414;2022-07-01T12:38:41;21.10;99.90
45761;DHT22;31471;51.040;14.414;2022-07-01T12:43:51;20.90;99.90
45761;DHT22;31471;51.040;14.414;2022-07-01T12:46:27;21.00;99.90
45761;DHT22;31471;51.040;14.414;2022-07-01T12:48:53;20.70;99.90
45761;DHT22;31471;51.040;14.414;2022-07-01T12:51:18;20.60;99.90
45761;DHT22;31471;51.040;14.414;2022-07-01T12:53:44;20.60;99.90
45761;DHT22;31471;51.040;14.414;2022-07-01T12:56:20;20.50;99.90
45761;DHT22;31471;51.040;14.414;2022-07-01T12:58:46;20.60;99.90
45761;DHT22;31471;51.040;14.414;2022-07-01T13:01:12;20.60;99.90
45761;DHT22;31471;51.040;14.414;2022-07-01T13:03:37;20.80;99.90
45761;DHT22;31471;51.040;14.414;2022-07-01T13:06:03;20.70;99.90
45761;DHT22;31471;51.040;14.414;2022-07-01T13:08:28;20.50;99.90
45761;DHT22;31471;51.040;14.414;2022-07-01T13:10:53;20.60;99.90
45761;DHT22;31471;51.040;14.414;2022-07-01T13:13:19;20.60;99.90
45761;DHT22;31471;51.040;14.414;2022-07-01T13:15:45;20.20;99.90
45761;DHT22;31471;51.040;14.414;2022-07-01T13:18:11;19.80;99.90
45761;DHT22;31471;51.040;14.414;2022-07-01T13:20:39;19.70;99.90
45761;DHT22;31471;51.040;14.414;2022-07-01T13:23:05;19.90;99.90
45761;DHT22;31471;51.040;14.414;2022-07-01T13:25:30;19.70;99.90
45761;DHT22;31471;51.040;14.414;2022-07-01T13:27:57;19.70;99.90
45761;DHT22;31471;51.040;14.414;2022-07-01T13:30:22;19.90;99.90
45761;DHT22;31471;51.040;14.414;2022-07-01T13:32:48;19.60;99.90
45761;DHT22;31471;51.040;14.414;2022-07-01T13:35:17;19.60;99.90
45761;DHT22;31471;51.040;14.414;2022-07-01T13:37:43;19.40;99.90
45761;DHT22;31471;51.040;14.414;2022-07-01T13:40:08;19.30;99.90
45761;DHT22;31471;51.040;14.414;2022-07-01T13:42:35;19.00;99.90
45761;DHT22;31471;51.040;14.414;2022-07-01T13:45:00;19.10;99.90
45761;DHT22;31471;51.040;14.414;2022-07-01T13:47:26;19.00;99.90
45761;DHT22;31471;51.040;14.414;2022-07-01T13:49:51;19.30;99.90
45761;DHT22;31471;51.040;14.414;2022-07-01T13:52:16;19.30;99.90
45761;DHT22;31471;51.040;14.414;2022-07-01T13:54:42;19.40;99.90
45761;DHT22;31471;51.040;14.414;2022-07-01T13:57:07;19.30;99.90
45761;DHT22;31471;51.040;14.414;2022-07-01T13:59:33;19.30;99.90
45761;DHT22;31471;51.040;14.414;2022-07-01T14:01:59;19.20;99.90
45761;DHT22;31471;51.040;14.414;2022-07-01T14:04:25;19.00;99.90
45761;DHT22;31471;51.040;14.414;2022-07-01T14:06:50;18.90;99.90
45761;DHT22;31471;51.040;14.414;2022-07-01T14:09:16;19.00;99.90
45761;DHT22;31471;51.040;14.414;2022-07-01T14:11:41;18.70;99.90
45761;DHT22;31471;51.040;14.414;2022-07-01T14:14:07;18.80;99.90
45761;DHT22;31471;51.040;14.414;2022-07-01T14:16:32;18.50;99.90
45761;DHT22;31471;51.040;14.414;2022-07-01T14:18:58;18.60;99.90
45761;DHT22;31471;51.040;14.414;2022-07-01T14:21:23;18.80;99.90
45761;DHT22;31471;51.040;14.414;2022-07-01T14:23:49;18.80;99.90
45761;DHT22;31471;51.040;14.414;2022-07-01T14:26:15;18.50;99.90
45761;DHT22;31471;51.040;14.414;2022-07-01T14:28:41;18.60;99.90
45761;DHT22;31471;51.040;14.414;2022-07-01T14:31:06;18.60;99.90
45761;DHT22;31471;51.040;14.414;2022-07-01T14:33:32;18.60;99.90
45761;DHT22;31471;51.040;14.414;2022-07-01T14:35:57;18.60;99.90
45761;DHT22;31471;51.040;14.414;2022-07-01T14:38:23;18.60;99.90
45761;DHT22;31471;51.040;14.414;2022-07-01T14:40:48;18.50;99.90
45761;DHT22;31471;51.040;14.414;2022-07-01T14:43:14;18.50;99.90
45761;DHT22;31471;51.040;14.414;2022-07-01T14:45:39;18.50;99.90
45761;DHT22;31471;51.040;14.414;2022-07-01T14:48:05;18.50;99.90
45761;DHT22;31471;51.040;14.414;2022-07-01T14:50:30;18.50;99.90
45761;DHT22;31471;51.040;14.414;2022-07-01T14:52:56;18.40;99.90
45761;DHT22;31471;51.040;14.414;2022-07-01T14:55:21;18.20;99.90
45761;DHT22;31471;51.040;14.414;2022-07-01T14:57:47;18.10;99.90
45761;DHT22;31471;51.040;14.414;2022-07-01T15:00:12;18.10;99.90
45761;DHT22;31471;51.040;14.414;2022-07-01T15:02:38;18.00;99.90
45761;DHT22;31471;51.040;14.414;2022-07-01T15:05:04;17.90;99.90
45761;DHT22;31471;51.040;14.414;2022-07-01T15:07:29;17.90;99.90
45761;DHT22;31471;51.040;14.414;2022-07-01T15:09:55;17.60;99.90
45761;DHT22;31471;51.040;14.414;2022-07-01T15:12:27;17.50;99.90
45761;DHT22;31471;51.040;14.414;2022-07-01T15:14:52;17.40;99.90
45761;DHT22;31471;51.040;14.414;2022-07-01T15:17:18;17.40;99.90
45761;DHT22;31471;51.040;14.414;2022-07-01T15:19:43;17.60;99.90
45761;DHT22;31471;51.040;14.414;2022-07-01T15:22:09;17.50;99.90
45761;DHT22;31471;51.040;14.414;2022-07-01T15:24:35;17.50;99.90
45761;DHT22;31471;51.040;14.414;2022-07-01T15:27:00;17.50;99.90
45761;DHT22;31471;51.040;14.414;2022-07-01T15:29:27;17.30;99.90
45761;DHT22;31471;51.040;14.414;2022-07-01T15:31:53;17.50;99.90
45761;DHT22;31471;51.040;14.414;2022-07-01T15:34:18;17.50;99.90
45761;DHT22;31471;51.040;14.414;2022-07-01T15:36:44;17.30;99.90